Ljuta — J8B4127 — position and weather

sailwx.info

Track history (hours):
 
Tides and Currents Weather Stations Pressure Air Temp Water Temp Dewpoint Dewpoint Depression Visibility Wind Speed Wind Dir Waves Ship Positions

Ljuta

Last reported at 2017-Sep-17 02:14 UTC. Time now 2017-Sep-22 22:45 UTC.
Position N 35°59' W 005°08'.

Length 177 m; draft 9.6 m.

Type: Cargo ship. MMSI: 377715000.

Date/timePositionNaut miles runAvg speedWind from/ knotsBaromVisibWave heightAir tempDewpointWater temp
2017-Sep-17 02:14N 35°59' W 005°08'314.2
2017-Sep-17 02:00N 35°58' W 005°12'713.3
2017-Sep-17 01:30N 35°58' W 005°20'713.9
2017-Sep-17 01:00N 35°57' W 005°28'11712.5
2017-Sep-16 15:37N 36°16' W 007°51'113.2
2017-Sep-16 15:30N 36°16' W 007°53'15710.9
2017-Sep-16 01:06N 38°17' W 009°59'212.6
2017-Sep-16 00:57N 38°19' W 009°59'613.2
2017-Sep-16 00:27N 38°25' W 010°01'612.9
2017-Sep-16 00:00N 38°31' W 010°03'912.5
2017-Sep-15 23:19N 38°39' W 010°05'512.6
2017-Sep-15 22:57N 38°44' W 010°06'612.8
2017-Sep-15 22:30N 38°49' W 010°06'612.8
2017-Sep-15 22:00N 38°56' W 010°06'612.7
2017-Sep-15 21:31N 39°02' W 010°06'612.7
2017-Sep-15 21:00N 39°08' W 010°06'612.8
2017-Sep-15 20:30N 39°15' W 010°06'813.2
2017-Sep-15 19:55N 39°22' W 010°06'  
2017-Sep-13 04:22N 49°34' W 003°57'3 8.3
2017-Sep-13 04:00N 49°36' W 003°53'4 8.1
2017-Sep-13 03:30N 49°38' W 003°48'4 8.6
2017-Sep-13 03:00N 49°40' W 003°42'4 8.6
2017-Sep-13 02:30N 49°42' W 003°36'4 8.7
2017-Sep-13 02:00N 49°45' W 003°30'4 8.3
2017-Sep-13 01:30N 49°47' W 003°25'4 7.9
2017-Sep-13 01:00N 49°49' W 003°20'4 8.0
2017-Sep-13 00:30N 49°51' W 003°14'4 7.3
2017-Sep-13 00:00N 49°52' W 003°09'4 7.3
2017-Sep-12 23:30N 49°54' W 003°04'4 7.2
2017-Sep-12 23:00N 49°56' W 002°59'3 6.9
2017-Sep-12 22:30N 49°57' W 002°54'3 6.7
2017-Sep-12 22:00N 49°59' W 002°50'4 7.4
2017-Sep-12 21:30N 50°00' W 002°44'4 8.0
2017-Sep-12 21:00N 50°01' W 002°38'2710.8
2017-Sep-12 18:31N 50°09' W 001°59'113.1
2017-Sep-12 18:28N 50°09' W 001°58'613.2
2017-Sep-12 18:01N 50°12' W 001°49'713.6
2017-Sep-12 17:30N 50°14' W 001°39'713.5
2017-Sep-12 17:00N 50°16' W 001°28'713.2
2017-Sep-12 16:30N 50°18' W 001°18'3610.8
2017-Sep-12 13:10N 50°28' W 000°24'2 9.5
2017-Sep-12 13:00N 50°28' W 000°22'5 9.5
2017-Sep-12 12:30N 50°30' W 000°15'5 9.6
2017-Sep-12 12:00N 50°31' W 000°08'5 9.8
2017-Sep-12 11:30N 50°32' W 000°00'510.3
2017-Sep-12 11:00N 50°34' E 000°07'510.7
2017-Sep-12 10:30N 50°35' E 000°15'611.3
2017-Sep-12 10:00N 50°37' E 000°24'611.9
2017-Sep-12 09:30N 50°38' E 000°33'612.4
2017-Sep-12 09:00N 50°42' E 000°41'612.8
2017-Sep-12 08:30N 50°45' E 000°50'612.6
2017-Sep-12 08:00N 50°49' E 000°58'712.4
2017-Sep-12 07:25N 50°53' E 001°07'1211.5
2017-Sep-12 06:20N 51°01' E 001°22'310.4
2017-Sep-12 06:00N 51°04' E 001°26'5 9.9
2017-Sep-12 05:31N 51°07' E 001°32'4 8.9
2017-Sep-12 05:01N 51°10' E 001°37'4 8.9
2017-Sep-12 04:30N 51°13' E 001°43'5 9.3
2017-Sep-12 04:00N 51°16' E 001°48'5 9.7
2017-Sep-12 03:31N 51°20' E 001°52'510.2
2017-Sep-12 03:00N 51°25' E 001°57'510.8
2017-Sep-12 02:31N 51°29' E 002°02'611.6
2017-Sep-12 01:59N 51°34' E 002°08'612.3
2017-Sep-12 01:30N 51°38' E 002°14'712.8
2017-Sep-12 00:55N 51°45' E 002°20'432 9.7
2017-Sep-10 04:30N 57°36' E 009°34'611.2
2017-Sep-10 03:59N 57°39' E 009°43'511.4
2017-Sep-10 03:30N 57°42' E 009°52'611.3
2017-Sep-10 03:00N 57°45' E 010°02'611.2
2017-Sep-10 02:29N 57°46' E 010°12'1010.9
2017-Sep-10 01:31N 57°48' E 010°31'110.4
2017-Sep-10 01:23N 57°48' E 010°34'410.3
2017-Sep-10 01:00N 57°49' E 010°41'511.0
2017-Sep-10 00:30N 57°46' E 010°50'612.0
2017-Sep-10 00:00N 57°42' E 010°59'611.6
2017-Sep-09 23:29N 57°38' E 011°06'611.8
2017-Sep-09 23:00N 57°34' E 011°14'612.1
2017-Sep-09 22:30N 57°30' E 011°23'611.8
2017-Sep-09 22:00N 57°25' E 011°28'612.3
2017-Sep-09 21:30N 57°19' E 011°32'612.4
2017-Sep-09 21:00N 57°13' E 011°35'712.2
2017-Sep-09 20:27N 57°06' E 011°40'11410.6
2017-Sep-09 09:41N 55°14' E 011°06'211.1
2017-Sep-09 09:30N 55°12' E 011°06'611.4
2017-Sep-09 09:00N 55°07' E 011°03'612.1
2017-Sep-09 08:30N 55°01' E 011°02'510.5
2017-Sep-09 08:00N 54°56' E 010°56'510.5
2017-Sep-09 07:30N 54°51' E 010°53'611.3
2017-Sep-09 07:00N 54°46' E 010°53'510.4
2017-Sep-09 06:30N 54°41' E 010°56'611.6
2017-Sep-09 06:00N 54°38' E 011°05'611.7
2017-Sep-09 05:30N 54°35' E 011°14'611.9
2017-Sep-09 05:00N 54°33' E 011°23'611.8
2017-Sep-09 04:30N 54°30' E 011°32'611.3
2017-Sep-09 04:00N 54°28' E 011°41'510.8
2017-Sep-09 03:30N 54°27' E 011°50'811.3
2017-Sep-09 02:47N 54°27' E 012°04'311.4
2017-Sep-09 02:30N 54°27' E 012°09'510.8
2017-Sep-09 02:00N 54°32' E 012°13'611.1
2017-Sep-09 01:30N 54°37' E 012°18'50 9.9
2017-Sep-08 20:26N 54°59' E 013°36'510.9
2017-Sep-08 20:00N 55°00' E 013°44'510.8
2017-Sep-08 19:30N 55°02' E 013°52'510.5
2017-Sep-08 19:00N 55°04' E 014°01'510.5
2017-Sep-08 18:30N 55°08' E 014°08'510.7
2017-Sep-08 18:00N 55°12' E 014°14'510.8
2017-Sep-08 17:30N 55°16' E 014°19'510.9
2017-Sep-08 17:00N 55°21' E 014°25'610.8
2017-Sep-08 16:30N 55°25' E 014°31'510.2
2017-Sep-08 16:00N 55°28' E 014°38'510.3
2017-Sep-08 15:30N 55°31' E 014°46'510.6
2017-Sep-08 15:00N 55°33' E 014°54'611.1
2017-Sep-08 14:30N 55°36' E 015°03'611.3
2017-Sep-08 14:00N 55°38' E 015°12'611.3
2017-Sep-08 13:30N 55°39' E 015°22'611.4
2017-Sep-08 13:00N 55°41' E 015°32'611.2
2017-Sep-08 12:30N 55°42' E 015°41'611.3
2017-Sep-08 12:00N 55°43' E 015°51'611.4
2017-Sep-08 11:30N 55°45' E 016°01'611.7
2017-Sep-08 11:00N 55°46' E 016°11'611.7
2017-Sep-08 10:30N 55°48' E 016°21'611.5
2017-Sep-08 10:00N 55°49' E 016°31'611.6
2017-Sep-08 09:30N 55°51' E 016°41'711.4
2017-Sep-08 08:55N 55°53' E 016°52'29911.6
2017-Sep-07 07:08N 59°26' E 023°23'412.9
2017-Sep-07 06:49N 59°26' E 023°31'  
Track history (hours):
 
Tides and Currents Weather Stations Pressure Air Temp Water Temp Dewpoint Dewpoint Depression Visibility Wind Speed Wind Dir Waves Ship Positions

Ljuta

Last reported at 2017-Sep-17 02:14 UTC. Time now 2017-Sep-22 22:45 UTC.
Position N 35°59' W 005°08'.

Length 177 m; draft 9.6 m.

Type: Cargo ship. MMSI: 377715000.

Date/timePositionNaut miles runAvg speedWind from/ knotsBaromVisibWave heightAir tempDewpointWater temp
2017-Sep-17 02:14N 35°59' W 005°08'314.2
2017-Sep-17 02:00N 35°58' W 005°12'713.3
2017-Sep-17 01:30N 35°58' W 005°20'713.9
2017-Sep-17 01:00N 35°57' W 005°28'11712.5
2017-Sep-16 15:37N 36°16' W 007°51'113.2
2017-Sep-16 15:30N 36°16' W 007°53'15710.9
2017-Sep-16 01:06N 38°17' W 009°59'212.6
2017-Sep-16 00:57N 38°19' W 009°59'613.2
2017-Sep-16 00:27N 38°25' W 010°01'612.9
2017-Sep-16 00:00N 38°31' W 010°03'912.5
2017-Sep-15 23:19N 38°39' W 010°05'512.6
2017-Sep-15 22:57N 38°44' W 010°06'612.8
2017-Sep-15 22:30N 38°49' W 010°06'612.8
2017-Sep-15 22:00N 38°56' W 010°06'612.7
2017-Sep-15 21:31N 39°02' W 010°06'612.7
2017-Sep-15 21:00N 39°08' W 010°06'612.8
2017-Sep-15 20:30N 39°15' W 010°06'813.2
2017-Sep-15 19:55N 39°22' W 010°06'  
2017-Sep-13 04:22N 49°34' W 003°57'3 8.3
2017-Sep-13 04:00N 49°36' W 003°53'4 8.1
2017-Sep-13 03:30N 49°38' W 003°48'4 8.6
2017-Sep-13 03:00N 49°40' W 003°42'4 8.6
2017-Sep-13 02:30N 49°42' W 003°36'4 8.7
2017-Sep-13 02:00N 49°45' W 003°30'4 8.3
2017-Sep-13 01:30N 49°47' W 003°25'4 7.9
2017-Sep-13 01:00N 49°49' W 003°20'4 8.0
2017-Sep-13 00:30N 49°51' W 003°14'4 7.3
2017-Sep-13 00:00N 49°52' W 003°09'4 7.3
2017-Sep-12 23:30N 49°54' W 003°04'4 7.2
2017-Sep-12 23:00N 49°56' W 002°59'3 6.9
2017-Sep-12 22:30N 49°57' W 002°54'3 6.7
2017-Sep-12 22:00N 49°59' W 002°50'4 7.4
2017-Sep-12 21:30N 50°00' W 002°44'4 8.0
2017-Sep-12 21:00N 50°01' W 002°38'2710.8
2017-Sep-12 18:31N 50°09' W 001°59'113.1
2017-Sep-12 18:28N 50°09' W 001°58'613.2
2017-Sep-12 18:01N 50°12' W 001°49'713.6
2017-Sep-12 17:30N 50°14' W 001°39'713.5
2017-Sep-12 17:00N 50°16' W 001°28'713.2
2017-Sep-12 16:30N 50°18' W 001°18'3610.8
2017-Sep-12 13:10N 50°28' W 000°24'2 9.5
2017-Sep-12 13:00N 50°28' W 000°22'5 9.5
2017-Sep-12 12:30N 50°30' W 000°15'5 9.6
2017-Sep-12 12:00N 50°31' W 000°08'5 9.8
2017-Sep-12 11:30N 50°32' W 000°00'510.3
2017-Sep-12 11:00N 50°34' E 000°07'510.7
2017-Sep-12 10:30N 50°35' E 000°15'611.3
2017-Sep-12 10:00N 50°37' E 000°24'611.9
2017-Sep-12 09:30N 50°38' E 000°33'612.4
2017-Sep-12 09:00N 50°42' E 000°41'612.8
2017-Sep-12 08:30N 50°45' E 000°50'612.6
2017-Sep-12 08:00N 50°49' E 000°58'712.4
2017-Sep-12 07:25N 50°53' E 001°07'1211.5
2017-Sep-12 06:20N 51°01' E 001°22'310.4
2017-Sep-12 06:00N 51°04' E 001°26'5 9.9
2017-Sep-12 05:31N 51°07' E 001°32'4 8.9
2017-Sep-12 05:01N 51°10' E 001°37'4 8.9
2017-Sep-12 04:30N 51°13' E 001°43'5 9.3
2017-Sep-12 04:00N 51°16' E 001°48'5 9.7
2017-Sep-12 03:31N 51°20' E 001°52'510.2
2017-Sep-12 03:00N 51°25' E 001°57'510.8
2017-Sep-12 02:31N 51°29' E 002°02'611.6
2017-Sep-12 01:59N 51°34' E 002°08'612.3
2017-Sep-12 01:30N 51°38' E 002°14'712.8
2017-Sep-12 00:55N 51°45' E 002°20'432 9.7
2017-Sep-10 04:30N 57°36' E 009°34'611.2
2017-Sep-10 03:59N 57°39' E 009°43'511.4
2017-Sep-10 03:30N 57°42' E 009°52'611.3
2017-Sep-10 03:00N 57°45' E 010°02'611.2
2017-Sep-10 02:29N 57°46' E 010°12'1010.9
2017-Sep-10 01:31N 57°48' E 010°31'110.4
2017-Sep-10 01:23N 57°48' E 010°34'410.3
2017-Sep-10 01:00N 57°49' E 010°41'511.0
2017-Sep-10 00:30N 57°46' E 010°50'612.0
2017-Sep-10 00:00N 57°42' E 010°59'611.6
2017-Sep-09 23:29N 57°38' E 011°06'611.8
2017-Sep-09 23:00N 57°34' E 011°14'612.1
2017-Sep-09 22:30N 57°30' E 011°23'611.8
2017-Sep-09 22:00N 57°25' E 011°28'612.3
2017-Sep-09 21:30N 57°19' E 011°32'612.4
2017-Sep-09 21:00N 57°13' E 011°35'712.2
2017-Sep-09 20:27N 57°06' E 011°40'11410.6
2017-Sep-09 09:41N 55°14' E 011°06'211.1
2017-Sep-09 09:30N 55°12' E 011°06'611.4
2017-Sep-09 09:00N 55°07' E 011°03'612.1
2017-Sep-09 08:30N 55°01' E 011°02'510.5
2017-Sep-09 08:00N 54°56' E 010°56'510.5
2017-Sep-09 07:30N 54°51' E 010°53'611.3
2017-Sep-09 07:00N 54°46' E 010°53'510.4
2017-Sep-09 06:30N 54°41' E 010°56'611.6
2017-Sep-09 06:00N 54°38' E 011°05'611.7
2017-Sep-09 05:30N 54°35' E 011°14'611.9
2017-Sep-09 05:00N 54°33' E 011°23'611.8
2017-Sep-09 04:30N 54°30' E 011°32'611.3
2017-Sep-09 04:00N 54°28' E 011°41'510.8
2017-Sep-09 03:30N 54°27' E 011°50'811.3
2017-Sep-09 02:47N 54°27' E 012°04'311.4
2017-Sep-09 02:30N 54°27' E 012°09'510.8
2017-Sep-09 02:00N 54°32' E 012°13'611.1
2017-Sep-09 01:30N 54°37' E 012°18'50 9.9
2017-Sep-08 20:26N 54°59' E 013°36'510.9
2017-Sep-08 20:00N 55°00' E 013°44'510.8
2017-Sep-08 19:30N 55°02' E 013°52'510.5
2017-Sep-08 19:00N 55°04' E 014°01'510.5
2017-Sep-08 18:30N 55°08' E 014°08'510.7
2017-Sep-08 18:00N 55°12' E 014°14'510.8
2017-Sep-08 17:30N 55°16' E 014°19'510.9
2017-Sep-08 17:00N 55°21' E 014°25'610.8
2017-Sep-08 16:30N 55°25' E 014°31'510.2
2017-Sep-08 16:00N 55°28' E 014°38'510.3
2017-Sep-08 15:30N 55°31' E 014°46'510.6
2017-Sep-08 15:00N 55°33' E 014°54'611.1
2017-Sep-08 14:30N 55°36' E 015°03'611.3
2017-Sep-08 14:00N 55°38' E 015°12'611.3
2017-Sep-08 13:30N 55°39' E 015°22'611.4
2017-Sep-08 13:00N 55°41' E 015°32'611.2
2017-Sep-08 12:30N 55°42' E 015°41'611.3
2017-Sep-08 12:00N 55°43' E 015°51'611.4
2017-Sep-08 11:30N 55°45' E 016°01'611.7
2017-Sep-08 11:00N 55°46' E 016°11'611.7
2017-Sep-08 10:30N 55°48' E 016°21'611.5
2017-Sep-08 10:00N 55°49' E 016°31'611.6
2017-Sep-08 09:30N 55°51' E 016°41'711.4
2017-Sep-08 08:55N 55°53' E 016°52'29911.6
2017-Sep-07 07:08N 59°26' E 023°23'412.9
2017-Sep-07 06:49N 59°26' E 023°31'  

Dump ship's entire track history